sensor_id;sensor_type;location;lat;lon;timestamp;P1;durP1;ratioP1;P2;durP2;ratioP2
18196;SDS011;9224;52.422;13.024;2024-02-23T00:01:59;205.73;;;130.63;;
18196;SDS011;9224;52.422;13.024;2024-02-23T00:04:26;201.27;;;128.67;;
18196;SDS011;9224;52.422;13.024;2024-02-23T00:06:53;201.17;;;129.20;;
18196;SDS011;9224;52.422;13.024;2024-02-23T00:09:34;201.67;;;128.70;;
18196;SDS011;9224;52.422;13.024;2024-02-23T00:12:03;202.17;;;129.57;;
18196;SDS011;9224;52.422;13.024;2024-02-23T00:14:30;202.57;;;129.77;;
18196;SDS011;9224;52.422;13.024;2024-02-23T00:17:01;200.00;;;128.30;;
18196;SDS011;9224;52.422;13.024;2024-02-23T00:19:29;200.20;;;128.80;;
18196;SDS011;9224;52.422;13.024;2024-02-23T00:21:56;202.17;;;129.87;;
18196;SDS011;9224;52.422;13.024;2024-02-23T00:24:24;204.37;;;130.13;;
18196;SDS011;9224;52.422;13.024;2024-02-23T00:26:51;202.00;;;128.80;;
18196;SDS011;9224;52.422;13.024;2024-02-23T00:29:18;201.73;;;128.93;;
18196;SDS011;9224;52.422;13.024;2024-02-23T00:31:46;201.83;;;129.20;;
18196;SDS011;9224;52.422;13.024;2024-02-23T00:34:13;200.10;;;128.47;;
18196;SDS011;9224;52.422;13.024;2024-02-23T00:36:40;199.97;;;129.30;;
18196;SDS011;9224;52.422;13.024;2024-02-23T00:39:09;200.20;;;129.50;;
18196;SDS011;9224;52.422;13.024;2024-02-23T00:41:35;202.17;;;129.27;;
18196;SDS011;9224;52.422;13.024;2024-02-23T00:44:02;201.17;;;129.27;;
18196;SDS011;9224;52.422;13.024;2024-02-23T00:46:31;201.53;;;129.83;;
18196;SDS011;9224;52.422;13.024;2024-02-23T00:48:58;201.77;;;129.40;;
18196;SDS011;9224;52.422;13.024;2024-02-23T00:51:25;201.73;;;129.87;;
18196;SDS011;9224;52.422;13.024;2024-02-23T00:53:52;201.83;;;129.57;;
18196;SDS011;9224;52.422;13.024;2024-02-23T00:56:18;201.17;;;130.47;;
18196;SDS011;9224;52.422;13.024;2024-02-23T00:58:45;203.00;;;130.57;;
18196;SDS011;9224;52.422;13.024;2024-02-23T01:01:12;200.83;;;130.17;;
18196;SDS011;9224;52.422;13.024;2024-02-23T01:03:40;202.43;;;130.13;;
18196;SDS011;9224;52.422;13.024;2024-02-23T01:06:06;202.73;;;130.27;;
18196;SDS011;9224;52.422;13.024;2024-02-23T01:08:33;202.10;;;130.17;;
18196;SDS011;9224;52.422;13.024;2024-02-23T01:11:01;200.80;;;130.40;;
18196;SDS011;9224;52.422;13.024;2024-02-23T01:13:27;200.83;;;129.50;;
18196;SDS011;9224;52.422;13.024;2024-02-23T01:15:54;198.57;;;128.83;;
18196;SDS011;9224;52.422;13.024;2024-02-23T01:18:20;199.20;;;128.60;;
18196;SDS011;9224;52.422;13.024;2024-02-23T01:20:49;199.40;;;129.97;;
18196;SDS011;9224;52.422;13.024;2024-02-23T01:23:15;202.23;;;130.63;;
18196;SDS011;9224;52.422;13.024;2024-02-23T01:25:42;201.20;;;130.40;;
18196;SDS011;9224;52.422;13.024;2024-02-23T01:28:09;202.73;;;131.67;;
18196;SDS011;9224;52.422;13.024;2024-02-23T01:30:35;201.20;;;130.57;;
18196;SDS011;9224;52.422;13.024;2024-02-23T01:33:02;202.67;;;130.47;;
18196;SDS011;9224;52.422;13.024;2024-02-23T01:35:29;201.60;;;130.60;;
18196;SDS011;9224;52.422;13.024;2024-02-23T01:37:57;202.13;;;130.33;;
18196;SDS011;9224;52.422;13.024;2024-02-23T01:40:22;202.33;;;130.10;;
18196;SDS011;9224;52.422;13.024;2024-02-23T01:42:52;203.10;;;130.17;;
18196;SDS011;9224;52.422;13.024;2024-02-23T01:45:26;199.67;;;126.50;;
18196;SDS011;9224;52.422;13.024;2024-02-23T01:47:53;197.00;;;127.10;;
18196;SDS011;9224;52.422;13.024;2024-02-23T01:50:20;196.07;;;127.07;;
18196;SDS011;9224;52.422;13.024;2024-02-23T01:52:47;197.50;;;127.27;;
18196;SDS011;9224;52.422;13.024;2024-02-23T01:55:15;196.23;;;126.43;;
18196;SDS011;9224;52.422;13.024;2024-02-23T01:57:41;201.07;;;128.07;;
18196;SDS011;9224;52.422;13.024;2024-02-23T02:00:09;201.13;;;128.07;;
18196;SDS011;9224;52.422;13.024;2024-02-23T02:02:38;202.27;;;128.23;;
18196;SDS011;9224;52.422;13.024;2024-02-23T02:05:05;200.60;;;127.77;;
18196;SDS011;9224;52.422;13.024;2024-02-23T02:07:33;201.97;;;128.47;;
18196;SDS011;9224;52.422;13.024;2024-02-23T02:09:59;200.47;;;128.77;;
18196;SDS011;9224;52.422;13.024;2024-02-23T02:12:30;202.83;;;129.37;;
18196;SDS011;9224;52.422;13.024;2024-02-23T02:14:57;211.73;;;127.90;;
18196;SDS011;9224;52.422;13.024;2024-02-23T02:17:26;212.57;;;130.13;;
18196;SDS011;9224;52.422;13.024;2024-02-23T02:19:53;225.17;;;133.10;;
18196;SDS011;9224;52.422;13.024;2024-02-23T02:22:19;225.73;;;132.47;;
18196;SDS011;9224;52.422;13.024;2024-02-23T02:24:46;229.53;;;131.97;;
18196;SDS011;9224;52.422;13.024;2024-02-23T02:27:13;235.90;;;134.03;;
18196;SDS011;9224;52.422;13.024;2024-02-23T02:29:41;248.07;;;135.80;;
18196;SDS011;9224;52.422;13.024;2024-02-23T02:32:08;244.93;;;135.87;;
18196;SDS011;9224;52.422;13.024;2024-02-23T02:34:35;253.77;;;137.37;;
18196;SDS011;9224;52.422;13.024;2024-02-23T02:37:01;249.07;;;135.40;;
18196;SDS011;9224;52.422;13.024;2024-02-23T02:39:28;237.10;;;133.80;;
18196;SDS011;9224;52.422;13.024;2024-02-23T02:41:55;241.77;;;134.80;;
18196;SDS011;9224;52.422;13.024;2024-02-23T02:44:22;254.27;;;136.80;;
18196;SDS011;9224;52.422;13.024;2024-02-23T02:46:50;251.83;;;134.60;;
18196;SDS011;9224;52.422;13.024;2024-02-23T02:49:17;252.83;;;136.37;;
18196;SDS011;9224;52.422;13.024;2024-02-23T02:51:43;263.47;;;137.90;;
18196;SDS011;9224;52.422;13.024;2024-02-23T02:54:10;261.30;;;137.73;;
18196;SDS011;9224;52.422;13.024;2024-02-23T02:56:41;268.13;;;139.73;;
18196;SDS011;9224;52.422;13.024;2024-02-23T02:59:08;274.27;;;139.93;;
18196;SDS011;9224;52.422;13.024;2024-02-23T03:01:35;276.27;;;139.40;;
18196;SDS011;9224;52.422;13.024;2024-02-23T03:04:03;262.27;;;137.60;;
18196;SDS011;9224;52.422;13.024;2024-02-23T03:06:30;265.37;;;138.83;;
18196;SDS011;9224;52.422;13.024;2024-02-23T03:08:57;259.37;;;137.40;;
18196;SDS011;9224;52.422;13.024;2024-02-23T03:11:23;261.10;;;138.20;;
18196;SDS011;9224;52.422;13.024;2024-02-23T03:13:50;256.67;;;136.37;;
18196;SDS011;9224;52.422;13.024;2024-02-23T03:16:17;254.03;;;133.37;;
18196;SDS011;9224;52.422;13.024;2024-02-23T03:18:44;260.00;;;134.67;;
18196;SDS011;9224;52.422;13.024;2024-02-23T03:21:12;256.93;;;134.43;;
18196;SDS011;9224;52.422;13.024;2024-02-23T03:23:40;266.20;;;136.77;;
18196;SDS011;9224;52.422;13.024;2024-02-23T03:26:07;235.70;;;131.23;;
18196;SDS011;9224;52.422;13.024;2024-02-23T03:28:34;243.00;;;133.60;;
18196;SDS011;9224;52.422;13.024;2024-02-23T03:31:00;216.37;;;128.33;;
18196;SDS011;9224;52.422;13.024;2024-02-23T03:33:27;227.33;;;130.13;;
18196;SDS011;9224;52.422;13.024;2024-02-23T03:35:53;269.17;;;138.70;;
18196;SDS011;9224;52.422;13.024;2024-02-23T03:38:22;272.53;;;139.27;;
18196;SDS011;9224;52.422;13.024;2024-02-23T03:40:48;266.23;;;138.13;;
18196;SDS011;9224;52.422;13.024;2024-02-23T03:43:15;258.83;;;136.27;;
18196;SDS011;9224;52.422;13.024;2024-02-23T03:45:41;249.27;;;134.63;;
18196;SDS011;9224;52.422;13.024;2024-02-23T03:48:08;232.73;;;132.73;;
18196;SDS011;9224;52.422;13.024;2024-02-23T03:50:35;249.17;;;134.30;;
18196;SDS011;9224;52.422;13.024;2024-02-23T03:53:01;248.50;;;135.10;;
18196;SDS011;9224;52.422;13.024;2024-02-23T03:55:30;264.53;;;138.00;;
18196;SDS011;9224;52.422;13.024;2024-02-23T03:57:56;277.23;;;140.17;;
18196;SDS011;9224;52.422;13.024;2024-02-23T04:00:24;269.00;;;137.47;;
18196;SDS011;9224;52.422;13.024;2024-02-23T04:02:51;236.33;;;132.60;;
18196;SDS011;9224;52.422;13.024;2024-02-23T04:05:17;240.03;;;132.77;;
18196;SDS011;9224;52.422;13.024;2024-02-23T04:07:45;267.27;;;138.47;;
18196;SDS011;9224;52.422;13.024;2024-02-23T04:10:11;278.67;;;140.80;;
18196;SDS011;9224;52.422;13.024;2024-02-23T04:12:42;300.00;;;143.03;;
18196;SDS011;9224;52.422;13.024;2024-02-23T04:15:09;284.40;;;140.90;;
18196;SDS011;9224;52.422;13.024;2024-02-23T04:17:36;256.57;;;135.57;;
18196;SDS011;9224;52.422;13.024;2024-02-23T04:20:05;281.70;;;140.07;;
18196;SDS011;9224;52.422;13.024;2024-02-23T04:22:32;319.67;;;146.67;;
18196;SDS011;9224;52.422;13.024;2024-02-23T04:24:59;245.43;;;132.27;;
18196;SDS011;9224;52.422;13.024;2024-02-23T04:27:26;238.33;;;132.63;;
18196;SDS011;9224;52.422;13.024;2024-02-23T04:29:54;257.67;;;135.87;;
18196;SDS011;9224;52.422;13.024;2024-02-23T04:32:21;231.30;;;131.97;;
18196;SDS011;9224;52.422;13.024;2024-02-23T04:34:48;263.50;;;137.67;;
18196;SDS011;9224;52.422;13.024;2024-02-23T04:37:15;261.23;;;136.67;;
18196;SDS011;9224;52.422;13.024;2024-02-23T04:39:43;255.27;;;135.57;;
18196;SDS011;9224;52.422;13.024;2024-02-23T04:42:10;225.53;;;129.57;;
18196;SDS011;9224;52.422;13.024;2024-02-23T04:44:36;230.80;;;130.97;;
18196;SDS011;9224;52.422;13.024;2024-02-23T04:47:05;239.77;;;134.53;;
18196;SDS011;9224;52.422;13.024;2024-02-23T04:49:31;232.30;;;130.67;;
18196;SDS011;9224;52.422;13.024;2024-02-23T04:51:58;256.20;;;133.63;;
18196;SDS011;9224;52.422;13.024;2024-02-23T04:54:24;258.33;;;134.70;;
18196;SDS011;9224;52.422;13.024;2024-02-23T04:56:51;316.53;;;144.97;;
18196;SDS011;9224;52.422;13.024;2024-02-23T04:59:18;317.70;;;143.47;;
18196;SDS011;9224;52.422;13.024;2024-02-23T05:01:44;245.77;;;132.87;;
18196;SDS011;9224;52.422;13.024;2024-02-23T05:04:13;242.90;;;132.23;;
18196;SDS011;9224;52.422;13.024;2024-02-23T05:06:40;255.97;;;133.87;;
18196;SDS011;9224;52.422;13.024;2024-02-23T05:09:08;241.30;;;131.23;;
18196;SDS011;9224;52.422;13.024;2024-02-23T05:11:36;230.07;;;129.63;;
18196;SDS011;9224;52.422;13.024;2024-02-23T05:14:02;283.63;;;138.67;;
18196;SDS011;9224;52.422;13.024;2024-02-23T05:16:29;272.43;;;136.53;;
18196;SDS011;9224;52.422;13.024;2024-02-23T05:18:56;282.93;;;136.87;;
18196;SDS011;9224;52.422;13.024;2024-02-23T05:21:24;254.80;;;133.03;;
18196;SDS011;9224;52.422;13.024;2024-02-23T05:23:51;276.73;;;136.17;;
18196;SDS011;9224;52.422;13.024;2024-02-23T05:26:17;290.40;;;138.70;;
18196;SDS011;9224;52.422;13.024;2024-02-23T05:28:44;292.13;;;138.27;;
18196;SDS011;9224;52.422;13.024;2024-02-23T05:31:11;284.50;;;137.00;;
18196;SDS011;9224;52.422;13.024;2024-02-23T05:33:37;264.30;;;132.23;;
18196;SDS011;9224;52.422;13.024;2024-02-23T05:36:04;281.57;;;136.40;;
18196;SDS011;9224;52.422;13.024;2024-02-23T05:38:33;292.67;;;137.47;;
18196;SDS011;9224;52.422;13.024;2024-02-23T05:40:59;298.07;;;138.70;;
18196;SDS011;9224;52.422;13.024;2024-02-23T05:43:26;271.53;;;135.23;;
18196;SDS011;9224;52.422;13.024;2024-02-23T05:45:53;297.57;;;139.40;;
18196;SDS011;9224;52.422;13.024;2024-02-23T05:48:22;306.90;;;140.67;;
18196;SDS011;9224;52.422;13.024;2024-02-23T05:50:49;266.33;;;135.70;;
18196;SDS011;9224;52.422;13.024;2024-02-23T05:53:15;310.53;;;141.50;;
18196;SDS011;9224;52.422;13.024;2024-02-23T05:55:43;336.53;;;147.23;;
18196;SDS011;9224;52.422;13.024;2024-02-23T05:58:10;277.53;;;136.57;;
18196;SDS011;9224;52.422;13.024;2024-02-23T06:00:38;321.70;;;142.97;;
18196;SDS011;9224;52.422;13.024;2024-02-23T06:03:05;287.60;;;136.93;;
18196;SDS011;9224;52.422;13.024;2024-02-23T06:05:32;291.07;;;137.63;;
18196;SDS011;9224;52.422;13.024;2024-02-23T06:07:58;300.60;;;139.43;;
18196;SDS011;9224;52.422;13.024;2024-02-23T06:10:26;319.93;;;142.57;;
18196;SDS011;9224;52.422;13.024;2024-02-23T06:12:54;294.07;;;137.90;;
18196;SDS011;9224;52.422;13.024;2024-02-23T06:15:21;278.97;;;134.63;;
18196;SDS011;9224;52.422;13.024;2024-02-23T06:17:47;283.50;;;136.57;;
18196;SDS011;9224;52.422;13.024;2024-02-23T06:20:14;253.80;;;130.93;;
18196;SDS011;9224;52.422;13.024;2024-02-23T06:22:41;266.07;;;133.57;;
18196;SDS011;9224;52.422;13.024;2024-02-23T06:25:07;296.13;;;138.03;;
18196;SDS011;9224;52.422;13.024;2024-02-23T06:27:35;267.37;;;132.93;;
18196;SDS011;9224;52.422;13.024;2024-02-23T06:30:04;314.47;;;140.90;;
18196;SDS011;9224;52.422;13.024;2024-02-23T06:32:31;274.80;;;134.57;;
18196;SDS011;9224;52.422;13.024;2024-02-23T06:34:58;255.67;;;133.17;;
18196;SDS011;9224;52.422;13.024;2024-02-23T06:37:24;257.97;;;131.57;;
18196;SDS011;9224;52.422;13.024;2024-02-23T06:39:51;279.37;;;134.43;;
18196;SDS011;9224;52.422;13.024;2024-02-23T06:42:19;245.93;;;129.73;;
18196;SDS011;9224;52.422;13.024;2024-02-23T06:44:46;267.73;;;132.53;;
18196;SDS011;9224;52.422;13.024;2024-02-23T06:47:15;241.77;;;128.50;;
18196;SDS011;9224;52.422;13.024;2024-02-23T06:49:41;224.07;;;126.63;;
18196;SDS011;9224;52.422;13.024;2024-02-23T06:52:08;208.57;;;124.07;;
18196;SDS011;9224;52.422;13.024;2024-02-23T06:54:35;250.73;;;131.17;;
18196;SDS011;9224;52.422;13.024;2024-02-23T06:57:01;237.17;;;128.27;;
18196;SDS011;9224;52.422;13.024;2024-02-23T06:59:28;230.43;;;127.97;;
18196;SDS011;9224;52.422;13.024;2024-02-23T07:01:55;232.73;;;128.27;;
18196;SDS011;9224;52.422;13.024;2024-02-23T07:04:23;214.53;;;126.20;;
18196;SDS011;9224;52.422;13.024;2024-02-23T07:06:50;221.27;;;127.77;;
18196;SDS011;9224;52.422;13.024;2024-02-23T07:09:17;218.60;;;126.83;;
18196;SDS011;9224;52.422;13.024;2024-02-23T07:11:43;212.80;;;126.93;;
18196;SDS011;9224;52.422;13.024;2024-02-23T07:14:10;219.53;;;127.97;;
18196;SDS011;9224;52.422;13.024;2024-02-23T07:16:39;208.37;;;126.03;;
18196;SDS011;9224;52.422;13.024;2024-02-23T07:19:06;196.90;;;123.30;;
18196;SDS011;9224;52.422;13.024;2024-02-23T07:21:35;209.63;;;126.97;;
18196;SDS011;9224;52.422;13.024;2024-02-23T07:24:01;200.40;;;124.60;;
18196;SDS011;9224;52.422;13.024;2024-02-23T07:26:28;209.00;;;125.47;;
18196;SDS011;9224;52.422;13.024;2024-02-23T07:28:55;203.17;;;125.97;;
18196;SDS011;9224;52.422;13.024;2024-02-23T07:31:22;203.63;;;125.10;;
18196;SDS011;9224;52.422;13.024;2024-02-23T07:33:48;200.97;;;124.33;;
18196;SDS011;9224;52.422;13.024;2024-02-23T07:36:16;203.03;;;125.77;;
18196;SDS011;9224;52.422;13.024;2024-02-23T07:38:44;201.97;;;125.50;;
18196;SDS011;9224;52.422;13.024;2024-02-23T07:41:11;203.60;;;125.57;;
18196;SDS011;9224;52.422;13.024;2024-02-23T07:43:38;205.13;;;125.23;;
18196;SDS011;9224;52.422;13.024;2024-02-23T07:46:05;197.40;;;124.53;;
18196;SDS011;9224;52.422;13.024;2024-02-23T07:48:33;198.33;;;125.20;;
18196;SDS011;9224;52.422;13.024;2024-02-23T07:51:00;197.00;;;124.87;;
18196;SDS011;9224;52.422;13.024;2024-02-23T07:53:27;195.30;;;124.37;;
18196;SDS011;9224;52.422;13.024;2024-02-23T07:55:55;211.03;;;127.30;;
18196;SDS011;9224;52.422;13.024;2024-02-23T07:58:24;216.20;;;129.20;;
18196;SDS011;9224;52.422;13.024;2024-02-23T08:00:51;218.20;;;128.77;;
18196;SDS011;9224;52.422;13.024;2024-02-23T08:03:18;204.40;;;126.33;;
18196;SDS011;9224;52.422;13.024;2024-02-23T08:05:44;210.30;;;125.30;;
18196;SDS011;9224;52.422;13.024;2024-02-23T08:08:11;224.17;;;128.87;;
18196;SDS011;9224;52.422;13.024;2024-02-23T08:10:38;208.67;;;125.20;;
18196;SDS011;9224;52.422;13.024;2024-02-23T08:13:06;204.37;;;124.90;;
18196;SDS011;9224;52.422;13.024;2024-02-23T08:15:33;204.60;;;125.20;;
18196;SDS011;9224;52.422;13.024;2024-02-23T08:18:01;209.03;;;126.40;;
18196;SDS011;9224;52.422;13.024;2024-02-23T08:20:27;197.00;;;124.43;;
18196;SDS011;9224;52.422;13.024;2024-02-23T08:22:54;194.37;;;123.57;;
18196;SDS011;9224;52.422;13.024;2024-02-23T08:25:21;194.10;;;124.30;;
18196;SDS011;9224;52.422;13.024;2024-02-23T08:27:47;199.97;;;125.10;;
18196;SDS011;9224;52.422;13.024;2024-02-23T08:30:15;197.17;;;124.40;;
18196;SDS011;9224;52.422;13.024;2024-02-23T08:32:42;202.80;;;125.63;;
18196;SDS011;9224;52.422;13.024;2024-02-23T08:35:09;198.93;;;125.07;;
18196;SDS011;9224;52.422;13.024;2024-02-23T08:37:35;204.73;;;126.63;;
18196;SDS011;9224;52.422;13.024;2024-02-23T08:40:03;203.87;;;125.97;;
18196;SDS011;9224;52.422;13.024;2024-02-23T08:42:31;201.33;;;127.00;;
18196;SDS011;9224;52.422;13.024;2024-02-23T08:44:58;199.33;;;124.87;;
18196;SDS011;9224;52.422;13.024;2024-02-23T08:47:26;202.60;;;127.43;;
18196;SDS011;9224;52.422;13.024;2024-02-23T08:49:57;198.17;;;124.87;;
18196;SDS011;9224;52.422;13.024;2024-02-23T08:52:23;196.93;;;124.97;;
18196;SDS011;9224;52.422;13.024;2024-02-23T08:54:50;199.53;;;125.73;;
18196;SDS011;9224;52.422;13.024;2024-02-23T08:57:17;203.30;;;125.97;;
18196;SDS011;9224;52.422;13.024;2024-02-23T08:59:45;201.03;;;125.93;;
18196;SDS011;9224;52.422;13.024;2024-02-23T09:02:12;200.43;;;125.43;;
18196;SDS011;9224;52.422;13.024;2024-02-23T09:04:40;199.13;;;125.30;;
18196;SDS011;9224;52.422;13.024;2024-02-23T09:07:06;201.73;;;125.93;;
18196;SDS011;9224;52.422;13.024;2024-02-23T09:09:33;200.23;;;125.30;;
18196;SDS011;9224;52.422;13.024;2024-02-23T09:12:00;202.90;;;127.97;;
18196;SDS011;9224;52.422;13.024;2024-02-23T09:14:26;203.87;;;127.37;;
18196;SDS011;9224;52.422;13.024;2024-02-23T09:16:53;198.97;;;125.27;;
18196;SDS011;9224;52.422;13.024;2024-02-23T09:19:20;198.60;;;125.60;;
18196;SDS011;9224;52.422;13.024;2024-02-23T09:21:48;196.23;;;124.60;;
18196;SDS011;9224;52.422;13.024;2024-02-23T09:24:14;195.60;;;124.40;;
18196;SDS011;9224;52.422;13.024;2024-02-23T09:26:41;196.73;;;125.90;;
18196;SDS011;9224;52.422;13.024;2024-02-23T09:29:07;195.33;;;125.20;;
18196;SDS011;9224;52.422;13.024;2024-02-23T09:31:34;196.33;;;125.27;;
18196;SDS011;9224;52.422;13.024;2024-02-23T09:34:01;193.70;;;125.40;;
18196;SDS011;9224;52.422;13.024;2024-02-23T09:36:27;196.43;;;125.97;;
18196;SDS011;9224;52.422;13.024;2024-02-23T09:38:56;191.77;;;124.43;;
18196;SDS011;9224;52.422;13.024;2024-02-23T09:41:23;188.97;;;123.30;;
18196;SDS011;9224;52.422;13.024;2024-02-23T09:44:02;190.33;;;124.50;;
18196;SDS011;9224;52.422;13.024;2024-02-23T09:46:29;193.87;;;125.07;;
18196;SDS011;9224;52.422;13.024;2024-02-23T09:48:56;190.70;;;124.10;;
18196;SDS011;9224;52.422;13.024;2024-02-23T09:51:23;190.83;;;124.40;;
18196;SDS011;9224;52.422;13.024;2024-02-23T09:53:51;190.90;;;123.60;;
18196;SDS011;9224;52.422;13.024;2024-02-23T09:56:20;198.80;;;125.37;;
18196;SDS011;9224;52.422;13.024;2024-02-23T09:58:47;205.80;;;125.83;;
18196;SDS011;9224;52.422;13.024;2024-02-23T10:01:15;210.87;;;126.70;;
18196;SDS011;9224;52.422;13.024;2024-02-23T10:03:51;208.03;;;127.27;;
18196;SDS011;9224;52.422;13.024;2024-02-23T10:06:17;205.83;;;126.50;;
18196;SDS011;9224;52.422;13.024;2024-02-23T10:08:44;202.33;;;126.13;;
18196;SDS011;9224;52.422;13.024;2024-02-23T10:11:11;208.07;;;126.80;;
18196;SDS011;9224;52.422;13.024;2024-02-23T10:13:40;204.67;;;127.50;;
18196;SDS011;9224;52.422;13.024;2024-02-23T10:16:08;203.13;;;125.40;;
18196;SDS011;9224;52.422;13.024;2024-02-23T10:19:56;216.47;;;128.27;;
18196;SDS011;9224;52.422;13.024;2024-02-23T10:22:01;206.77;;;126.33;;
18196;SDS011;9224;52.422;13.024;2024-02-23T10:24:28;203.70;;;125.37;;
18196;SDS011;9224;52.422;13.024;2024-02-23T10:26:54;204.93;;;126.10;;
18196;SDS011;9224;52.422;13.024;2024-02-23T10:29:23;209.47;;;126.83;;
18196;SDS011;9224;52.422;13.024;2024-02-23T10:31:51;204.23;;;126.47;;
18196;SDS011;9224;52.422;13.024;2024-02-23T10:34:18;206.80;;;127.00;;
18196;SDS011;9224;52.422;13.024;2024-02-23T10:36:46;200.83;;;125.83;;
18196;SDS011;9224;52.422;13.024;2024-02-23T10:39:15;206.63;;;126.57;;
18196;SDS011;9224;52.422;13.024;2024-02-23T10:41:44;208.60;;;127.27;;
18196;SDS011;9224;52.422;13.024;2024-02-23T10:44:14;217.03;;;128.63;;
18196;SDS011;9224;52.422;13.024;2024-02-23T10:46:45;203.87;;;126.40;;
18196;SDS011;9224;52.422;13.024;2024-02-23T10:49:12;221.37;;;126.40;;
18196;SDS011;9224;52.422;13.024;2024-02-23T10:51:41;204.87;;;126.97;;
18196;SDS011;9224;52.422;13.024;2024-02-23T10:54:08;204.57;;;126.30;;
18196;SDS011;9224;52.422;13.024;2024-02-23T10:56:36;199.47;;;125.77;;
18196;SDS011;9224;52.422;13.024;2024-02-23T10:59:03;199.20;;;125.87;;
18196;SDS011;9224;52.422;13.024;2024-02-23T11:01:32;200.63;;;126.40;;
18196;SDS011;9224;52.422;13.024;2024-02-23T11:04:01;210.93;;;127.63;;
18196;SDS011;9224;52.422;13.024;2024-02-23T11:06:28;204.17;;;128.40;;
18196;SDS011;9224;52.422;13.024;2024-02-23T11:09:04;201.27;;;127.37;;
18196;SDS011;9224;52.422;13.024;2024-02-23T11:11:31;202.50;;;127.27;;
18196;SDS011;9224;52.422;13.024;2024-02-23T11:13:58;203.00;;;127.33;;
18196;SDS011;9224;52.422;13.024;2024-02-23T11:16:29;197.77;;;126.03;;
18196;SDS011;9224;52.422;13.024;2024-02-23T11:19:04;199.70;;;125.97;;
18196;SDS011;9224;52.422;13.024;2024-02-23T11:21:33;196.23;;;125.17;;
18196;SDS011;9224;52.422;13.024;2024-02-23T11:24:02;195.37;;;124.37;;
18196;SDS011;9224;52.422;13.024;2024-02-23T11:26:29;195.10;;;124.33;;
18196;SDS011;9224;52.422;13.024;2024-02-23T11:28:57;204.97;;;126.70;;
18196;SDS011;9224;52.422;13.024;2024-02-23T11:31:25;197.23;;;126.43;;
18196;SDS011;9224;52.422;13.024;2024-02-23T11:33:55;204.97;;;127.60;;
18196;SDS011;9224;52.422;13.024;2024-02-23T11:36:24;199.40;;;127.40;;
18196;SDS011;9224;52.422;13.024;2024-02-23T11:38:54;188.30;;;124.23;;
18196;SDS011;9224;52.422;13.024;2024-02-23T11:41:21;189.00;;;124.37;;
18196;SDS011;9224;52.422;13.024;2024-02-23T11:43:48;184.47;;;124.07;;
18196;SDS011;9224;52.422;13.024;2024-02-23T11:46:15;183.97;;;122.97;;
18196;SDS011;9224;52.422;13.024;2024-02-23T11:48:42;185.93;;;124.33;;
18196;SDS011;9224;52.422;13.024;2024-02-23T11:51:09;195.80;;;126.03;;
18196;SDS011;9224;52.422;13.024;2024-02-23T11:53:37;185.73;;;123.83;;
18196;SDS011;9224;52.422;13.024;2024-02-23T11:56:04;193.87;;;122.17;;
18196;SDS011;9224;52.422;13.024;2024-02-23T11:58:34;180.60;;;121.53;;
18196;SDS011;9224;52.422;13.024;2024-02-23T12:01:03;190.13;;;124.00;;
18196;SDS011;9224;52.422;13.024;2024-02-23T12:03:30;190.53;;;125.87;;
18196;SDS011;9224;52.422;13.024;2024-02-23T12:05:56;191.63;;;125.27;;
18196;SDS011;9224;52.422;13.024;2024-02-23T12:08:23;189.97;;;125.53;;
18196;SDS011;9224;52.422;13.024;2024-02-23T12:10:55;191.23;;;124.30;;
18196;SDS011;9224;52.422;13.024;2024-02-23T12:13:25;187.17;;;123.67;;
18196;SDS011;9224;52.422;13.024;2024-02-23T12:15:52;190.07;;;125.33;;
18196;SDS011;9224;52.422;13.024;2024-02-23T12:18:21;192.37;;;124.93;;
18196;SDS011;9224;52.422;13.024;2024-02-23T12:20:48;192.57;;;124.37;;
18196;SDS011;9224;52.422;13.024;2024-02-23T12:23:15;190.70;;;124.83;;
18196;SDS011;9224;52.422;13.024;2024-02-23T12:25:51;190.87;;;124.00;;
18196;SDS011;9224;52.422;13.024;2024-02-23T12:28:20;189.83;;;124.07;;
18196;SDS011;9224;52.422;13.024;2024-02-23T12:30:57;190.80;;;124.77;;
18196;SDS011;9224;52.422;13.024;2024-02-23T12:33:26;193.10;;;126.10;;
18196;SDS011;9224;52.422;13.024;2024-02-23T12:35:53;192.37;;;125.83;;
18196;SDS011;9224;52.422;13.024;2024-02-23T12:38:20;192.53;;;126.17;;
18196;SDS011;9224;52.422;13.024;2024-02-23T12:40:46;194.53;;;126.83;;
18196;SDS011;9224;52.422;13.024;2024-02-23T12:43:13;193.77;;;125.77;;
18196;SDS011;9224;52.422;13.024;2024-02-23T12:45:41;190.23;;;125.53;;
18196;SDS011;9224;52.422;13.024;2024-02-23T12:48:09;190.57;;;125.77;;
18196;SDS011;9224;52.422;13.024;2024-02-23T12:50:36;190.53;;;124.80;;
18196;SDS011;9224;52.422;13.024;2024-02-23T12:53:02;193.00;;;126.80;;
18196;SDS011;9224;52.422;13.024;2024-02-23T12:55:30;193.83;;;125.63;;
18196;SDS011;9224;52.422;13.024;2024-02-23T12:57:57;192.43;;;126.20;;
18196;SDS011;9224;52.422;13.024;2024-02-23T13:00:28;194.10;;;126.83;;
18196;SDS011;9224;52.422;13.024;2024-02-23T13:02:56;203.83;;;128.13;;
18196;SDS011;9224;52.422;13.024;2024-02-23T13:05:23;194.80;;;126.50;;
18196;SDS011;9224;52.422;13.024;2024-02-23T13:07:49;199.80;;;125.97;;
18196;SDS011;9224;52.422;13.024;2024-02-23T13:10:16;198.90;;;126.63;;
18196;SDS011;9224;52.422;13.024;2024-02-23T13:12:43;206.03;;;127.27;;
18196;SDS011;9224;52.422;13.024;2024-02-23T13:15:10;200.80;;;127.90;;
18196;SDS011;9224;52.422;13.024;2024-02-23T13:17:37;207.67;;;128.63;;
18196;SDS011;9224;52.422;13.024;2024-02-23T13:20:06;210.50;;;130.07;;
18196;SDS011;9224;52.422;13.024;2024-02-23T13:22:33;208.47;;;129.43;;
18196;SDS011;9224;52.422;13.024;2024-02-23T13:25:00;220.37;;;129.97;;
18196;SDS011;9224;52.422;13.024;2024-02-23T13:27:26;211.93;;;129.80;;
18196;SDS011;9224;52.422;13.024;2024-02-23T13:29:54;241.23;;;135.17;;
18196;SDS011;9224;52.422;13.024;2024-02-23T13:32:21;215.37;;;129.60;;
18196;SDS011;9224;52.422;13.024;2024-02-23T13:34:48;229.73;;;132.60;;
18196;SDS011;9224;52.422;13.024;2024-02-23T13:37:18;209.03;;;129.63;;
18196;SDS011;9224;52.422;13.024;2024-02-23T13:39:45;206.90;;;129.23;;
18196;SDS011;9224;52.422;13.024;2024-02-23T13:42:11;201.90;;;128.57;;
18196;SDS011;9224;52.422;13.024;2024-02-23T13:44:38;199.30;;;127.53;;
18196;SDS011;9224;52.422;13.024;2024-02-23T13:47:05;200.80;;;129.70;;
18196;SDS011;9224;52.422;13.024;2024-02-23T13:49:32;209.80;;;129.17;;
18196;SDS011;9224;52.422;13.024;2024-02-23T13:51:59;199.87;;;128.10;;
18196;SDS011;9224;52.422;13.024;2024-02-23T13:54:27;205.03;;;128.50;;
18196;SDS011;9224;52.422;13.024;2024-02-23T13:56:53;222.70;;;131.53;;
18196;SDS011;9224;52.422;13.024;2024-02-23T13:59:20;205.63;;;127.23;;